Página principal
METAR-TAF:

METAR-TAF

Aeroportos :

Seward, Alasca, Estados Unidos

latitude: 60-07N, longitude: 149-27W, altura: 9 m

Observação actual do tempo

O boletim foi feito há 1 hora e 10 minutos, às 16:53 UTC
Vento 4 kt de su-sudoeste
Temperatura 10°C
Humidade 82%
Pressão 1017 hPa
Visibilidade: 16.1 km
Encobertoa uma altura de 6000 ft
chuva fraca

METAR: PAWD 201653Z AUTO 20004KT 10SM -RA OVC060 10/07 A3002 RMK AO2 RAB49 SLP165 P0000 T01000072 TSNO

Hora: 10:03 (18:03 UTC)


TAF: em falta

Observações e previsões do tempo de mais de 4000 aeroportos (mensagens METAR e TAF).

As estações disponíveis são os pontos amarelos e vermelhos sobre o mapa.

Mova o rato sobre o mapa para ver o nome da estação.

Depois clique no ponto para visualizar as observações e previsões meteorológicas.

Para alterar o mapa : clique nos botões verdes com uma cruz preta para aumentar o zoom; no botão verde com uma pitada de zoom; ou nas setas verdes para mapas adjacentes.


METAR-TAF: